Time;durP1;ratioP1;P1;durP2;ratioP2;P2;SDS_P1;SDS_P2;PMS_P1;PMS_P2;Temp;Humidity;BMP_temperature;BMP_pressure;BME280_temperature;BME280_humidity;BME280_pressure;Samples;Min_cycle;Max_cycle;Signal;HPM_P1;HPM_P2
2020/12/14 06:03:13;;;;;;;18.37;11.63;;;;;;;2.65;78.12;96677.91;1805487;76;946347;-82
2020/12/14 06:05:42;;;;;;;18.45;12.37;;;;;;;2.61;78.19;96679.89;1780300;80;21212;-80
2020/12/14 06:08:47;;;;;;;19.40;12.68;;;;;;;2.57;78.27;96682.77;1791660;80;21129;-84
2020/12/14 06:11:26;;;;;;;21.57;13.78;;;;;;;2.54;78.41;96686.86;1779055;80;21199;-86
2020/12/14 06:14:03;;;;;;;20.25;13.93;;;;;;;2.53;78.57;96691.22;1763247;79;21083;-87
2020/12/14 06:16:41;;;;;;;20.95;12.47;;;;;;;2.49;78.67;96698.86;1766659;80;21146;-85
2020/12/14 06:19:11;;;;;;;19.77;12.23;;;;;;;2.50;78.96;96701.00;1798085;79;21369;-86
2020/12/14 06:21:49;;;;;;;17.62;11.08;;;;;;;2.53;79.11;96700.78;1774645;80;21130;-85
2020/12/14 06:24:22;;;;;;;17.27;10.58;;;;;;;2.61;79.11;96699.39;1749577;81;21157;-85
2020/12/14 06:26:51;;;;;;;16.70;11.05;;;;;;;2.65;78.68;96706.50;1786389;79;21246;-84
2020/12/14 06:29:38;;;;;;;15.25;9.98;;;;;;;2.60;78.78;96697.69;1769214;79;21159;-87
2020/12/14 06:32:45;;;;;;;32.83;16.20;;;;;;;2.66;78.95;96705.10;1759396;80;21281;-85
2020/12/14 06:39:41;;;;;;;19.17;12.15;;;;;;;2.95;78.38;96705.84;1858016;77;26271;-89
2020/12/14 06:42:33;;;;;;;16.57;11.63;;;;;;;2.95;78.28;96705.84;1724944;81;21071;-85
2020/12/14 06:45:06;;;;;;;20.68;14.03;;;;;;;3.03;78.06;96705.83;1657682;82;22307;-87
2020/12/14 06:47:47;;;;;;;68.83;46.63;;;;;;;3.06;77.59;96703.84;1734655;80;21251;-84
2020/12/14 07:11:34;;;;;;;66.02;42.27;;;;;;;3.29;77.22;96698.91;1791279;79;22762;-90
2020/12/14 07:25:48;;;;;;;21.68;12.75;;;;;;;3.42;76.40;96706.26;1772294;77;947203;-86
2020/12/14 07:28:17;;;;;;;19.67;12.73;;;;;;;3.41;76.43;96711.11;1729317;82;21161;-85
2020/12/14 07:31:01;;;;;;;23.73;15.15;;;;;;;3.51;76.28;96711.33;1691543;81;21220;-89
2020/12/14 07:34:03;;;;;;;21.70;13.70;;;;;;;3.55;75.70;96712.30;1816300;77;23355;-87
2020/12/14 07:36:57;;;;;;;18.45;11.78;;;;;;;3.46;75.38;96719.45;1758171;80;21054;-90
2020/12/14 07:42:37;;;;;;;16.17;9.65;;;;;;;3.43;75.61;96727.44;1817516;77;22736;-88
2020/12/14 07:45:31;;;;;;;14.35;9.80;;;;;;;3.42;75.44;96734.89;1757678;81;21110;-91
2020/12/14 07:48:10;;;;;;;17.73;10.10;;;;;;;3.47;75.41;96736.25;1745587;81;21228;-89
2020/12/14 07:50:51;;;;;;;16.02;10.10;;;;;;;3.54;75.25;96738.45;1714190;81;21190;-92
2020/12/14 07:53:30;;;;;;;16.97;11.85;;;;;;;3.58;75.32;96743.36;1770290;81;21199;-91
2020/12/14 07:56:29;;;;;;;15.78;11.00;;;;;;;3.69;74.98;96745.25;1770747;81;21168;-88
2020/12/14 07:59:24;;;;;;;15.30;9.98;;;;;;;3.74;74.68;96747.08;1704855;82;21116;-88
2020/12/14 08:02:12;;;;;;;15.15;9.88;;;;;;;3.88;74.06;96743.06;1813952;77;22280;-90
2020/12/14 08:10:01;;;;;;;15.93;11.55;;;;;;;3.85;73.20;96748.47;1854520;75;26835;-89
2020/12/14 08:12:41;;;;;;;14.03;10.50;;;;;;;3.81;73.31;96756.14;1809743;77;21109;-91
2020/12/14 08:15:32;;;;;;;13.88;10.30;;;;;;;3.89;73.37;96755.62;1794906;77;22216;-91
2020/12/14 08:21:07;;;;;;;15.70;10.68;;;;;;;4.01;72.93;96762.13;1838972;77;22763;-89
2020/12/14 08:23:56;;;;;;;13.78;9.65;;;;;;;3.94;72.87;96771.30;1797453;78;21146;-89
2020/12/14 08:27:02;;;;;;;;;;;;;;;;;;;;;
2020/12/14 09:03:20;;;;;;;32.98;24.02;;;;;;;3.89;73.09;96796.00;1800702;77;24569;-91
2020/12/14 09:06:34;;;;;;;25.82;16.93;;;;;;;3.83;73.21;96799.02;1748936;80;21053;-89
2020/12/14 09:09:17;;;;;;;27.32;18.40;;;;;;;3.81;73.18;96802.20;1692259;82;21465;-91
2020/12/14 09:12:23;;;;;;;38.40;29.82;;;;;;;3.79;73.24;96804.05;1740962;82;21218;-91
2020/12/14 09:15:33;;;;;;;31.80;24.67;;;;;;;3.66;73.71;96803.56;1734252;82;21581;-92
2020/12/14 09:18:16;;;;;;;33.50;26.50;;;;;;;3.66;74.19;96807.47;1700605;84;21638;-92
2020/12/14 09:21:19;;;;;;;29.82;22.60;;;;;;;3.67;74.17;96808.30;1703558;83;21152;-94
2020/12/14 09:28:00;;;;;;;23.83;18.67;;;;;;;3.60;74.56;96810.47;1664656;82;21255;-90
2020/12/14 09:30:44;;;;;;;19.17;12.68;;;;;;;3.62;74.82;96805.19;1630481;86;21221;-91
2020/12/14 09:33:45;;;;;;;18.75;12.33;;;;;;;3.73;74.68;96805.29;1811530;77;22789;-93
2020/12/14 09:36:30;;;;;;;19.75;13.30;;;;;;;3.70;74.45;96807.64;1793365;78;21148;-92
2020/12/14 09:39:19;;;;;;;21.05;14.43;;;;;;;3.71;74.57;96805.87;1810656;78;21693;-94
2020/12/14 09:42:27;;;;;;;17.60;12.15;;;;;;;3.74;74.67;96806.98;1777020;78;21154;-91
2020/12/14 09:51:28;;;;;;;16.52;10.58;;;;;;;3.82;74.06;96804.69;1786598;78;21522;-93
2020/12/14 09:54:05;;;;;;;18.73;11.73;;;;;;;3.78;73.96;96807.59;1689665;81;22274;-91
2020/12/14 09:56:51;;;;;;;17.40;10.95;;;;;;;3.77;74.15;96808.53;1734157;82;21223;-89
2020/12/14 09:59:26;;;;;;;16.60;11.10;;;;;;;3.79;73.73;96813.16;1736413;81;21148;-89
2020/12/14 10:02:23;;;;;;;18.50;12.10;;;;;;;3.81;73.50;96817.83;1752833;81;21208;-90
2020/12/14 10:05:13;;;;;;;17.85;11.28;;;;;;;3.78;73.95;96814.11;1770337;81;21133;-90
2020/12/14 10:11:48;;;;;;;18.52;12.30;;;;;;;4.06;73.72;96812.63;1856265;76;27507;-92
2020/12/14 10:15:41;;;;;;;21.30;15.72;;;;;;;4.12;73.56;96813.99;1781540;80;21063;-93
2020/12/14 10:18:38;;;;;;;21.42;14.87;;;;;;;4.20;73.41;96814.30;1790856;77;21858;-93
2020/12/14 10:22:16;;;;;;;21.35;14.75;;;;;;;4.29;73.08;96820.20;1750193;81;21209;-93
2020/12/14 10:28:36;;;;;;;19.25;12.33;;;;;;;4.27;72.19;96815.58;1803741;79;23000;-92
2020/12/14 10:31:35;;;;;;;18.10;13.55;;;;;;;4.13;72.40;96818.27;1759051;80;21063;-89
2020/12/14 10:34:30;;;;;;;21.73;13.40;;;;;;;4.08;72.85;96822.95;1716672;83;21431;-89
2020/12/14 10:38:24;;;;;;;17.75;12.20;;;;;;;4.10;72.88;96821.92;1830146;75;28114;-91
2020/12/14 10:41:57;;;;;;;22.05;14.38;;;;;;;4.07;72.85;96829.93;1740920;76;23110;-93
2020/12/14 10:45:23;;;;;;;21.90;14.13;;;;;;;4.11;72.78;96822.75;1691389;82;21150;-91
2020/12/14 10:56:21;;;;;;;268.75;168.32;;;;;;;4.23;71.81;96829.73;1672555;81;21300;-92
2020/12/14 11:17:11;;;;;;;21.27;15.10;;;;;;;4.09;72.24;96836.34;1757147;80;23424;-93
2020/12/14 11:24:50;;;;;;;;;;;;;;;;;;;;;
2020/12/14 11:28:16;;;;;;;20.20;12.53;;;;;;;4.54;72.18;96829.77;1762913;77;25375;31
2020/12/14 11:31:19;;;;;;;18.50;12.82;;;;;;;4.53;71.79;96839.84;1634195;83;21280;-91
2020/12/14 11:35:22;;;;;;;19.40;12.88;;;;;;;4.52;71.55;96833.80;1644443;84;21217;-94
2020/12/14 11:38:30;;;;;;;22.27;15.78;;;;;;;4.53;71.40;96830.72;1657004;85;21344;-90
2020/12/14 11:42:12;;;;;;;;;;;;;;;;;;;;;
2020/12/14 12:03:55;;;;;;;17.82;11.70;;;;;;;4.43;70.57;96851.37;1845296;77;28159;-90
2020/12/14 12:06:37;;;;;;;19.05;12.20;;;;;;;4.22;70.82;96858.88;1769056;79;21220;-89
2020/12/14 12:09:29;;;;;;;16.17;11.35;;;;;;;4.12;71.35;96860.90;1793602;79;21411;-90
2020/12/14 12:12:18;;;;;;;16.97;10.55;;;;;;;4.08;71.75;96856.34;1763205;79;22871;-89
2020/12/14 12:14:47;;;;;;;18.27;12.88;;;;;;;4.07;72.01;96859.06;1700125;83;21515;-89
2020/12/14 12:17:21;;;;;;;18.67;12.82;;;;;;;4.05;71.86;96856.57;1687534;84;21536;-90
2020/12/14 12:20:08;;;;;;;23.10;14.20;;;;;;;4.00;72.10;96854.73;1687643;84;21135;-92
2020/12/14 12:23:14;;;;;;;23.85;15.40;;;;;;;3.96;72.24;96854.56;1716657;81;21181;-87
2020/12/14 12:25:47;;;;;;;22.52;14.83;;;;;;;3.94;72.42;96854.67;1754968;80;21231;-90
2020/12/14 12:28:17;;;;;;;21.57;15.13;;;;;;;3.98;72.63;96853.55;1727402;80;21070;-87
2020/12/14 12:30:54;;;;;;;22.80;15.10;;;;;;;3.96;72.72;96853.26;1748111;81;21208;-90
2020/12/14 12:33:29;;;;;;;23.45;15.55;;;;;;;3.97;73.00;96855.78;1732131;80;21094;-90
2020/12/14 12:36:01;;;;;;;24.95;17.70;;;;;;;4.04;73.12;96854.91;1756471;80;21201;-91
2020/12/14 12:38:44;;;;;;;29.60;21.25;;;;;;;4.12;72.95;96842.19;1848040;76;22451;-91
2020/12/14 12:41:16;;;;;;;24.20;17.15;;;;;;;4.09;72.85;96842.41;1819499;78;21113;-93
2020/12/14 12:43:58;;;;;;;28.55;19.20;;;;;;;4.11;72.84;96837.92;1808201;79;21187;-91
2020/12/14 12:47:07;;;;;;;24.60;16.77;;;;;;;4.17;72.62;96841.88;1812817;78;24671;-90
2020/12/14 12:49:42;;;;;;;;;;;;;;;4.22;72.65;96835.42;1825191;78;21161;-88
2020/12/14 12:52:23;;;;;;;24.55;15.83;;;;;;;4.26;72.37;96837.34;1821910;78;20235;-92
2020/12/14 12:54:57;;;;;;;32.50;24.15;;;;;;;4.24;72.33;96837.45;1820978;78;21176;-92
2020/12/14 12:57:37;;;;;;;24.43;16.67;;;;;;;4.26;72.17;96832.95;1788178;78;21191;-91
2020/12/14 13:00:09;;;;;;;31.93;24.07;;;;;;;4.22;72.15;96833.30;1787302;79;21152;-91
2020/12/14 13:02:44;;;;;;;27.30;19.82;;;;;;;4.18;72.08;96837.03;1756807;80;21047;-91
2020/12/14 13:05:16;;;;;;;26.12;17.90;;;;;;;4.11;72.25;96832.70;1799400;77;21101;-88
2020/12/14 13:07:48;;;;;;;23.80;17.20;;;;;;;4.02;72.63;96834.14;1808844;79;21116;-89
2020/12/14 13:10:16;;;;;;;25.97;17.35;;;;;;;4.02;72.86;96840.66;1799201;77;21193;-90
2020/12/14 13:12:46;;;;;;;33.00;20.82;;;;;;;4.06;72.93;96835.25;1809254;77;21111;-88
2020/12/14 13:15:18;;;;;;;28.25;18.12;;;;;;;4.08;73.01;96840.72;1804222;77;21091;-93
2020/12/14 13:18:41;;;;;;;25.00;16.55;;;;;;;4.12;72.91;96840.05;1815783;76;21259;-91
2020/12/14 13:32:45;;;;;;;29.42;16.02;;;;;;;4.41;72.00;96849.81;1780009;79;22145;-90
2020/12/14 13:35:25;;;;;;;26.05;15.70;;;;;;;4.35;71.93;96855.45;1790852;79;21562;-94
2020/12/14 13:37:57;;;;;;;27.07;16.65;;;;;;;4.36;71.92;96855.80;1737710;79;21097;-92
2020/12/14 13:40:31;;;;;;;26.52;16.25;;;;;;;4.32;72.07;96857.77;1737260;80;21137;-92
2020/12/14 13:43:10;;;;;;;25.15;15.43;;;;;;;4.34;72.24;96865.52;1744091;81;21201;-94
2020/12/14 13:45:44;;;;;;;28.32;17.65;;;;;;;4.37;72.16;96868.73;1751204;81;21062;-94
2020/12/14 13:48:21;;;;;;;28.47;18.25;;;;;;;4.42;72.17;96869.73;1754658;80;21180;-93
2020/12/14 13:51:24;;;;;;;27.62;18.07;;;;;;;4.46;71.92;96879.85;1741611;81;21145;-92
2020/12/14 13:54:52;;;;;;;25.82;17.73;;;;;;;4.49;71.86;96878.80;1784758;79;22518;-92
2020/12/14 13:57:38;;;;;;;24.57;16.57;;;;;;;4.41;72.03;96881.94;1755131;80;21067;-94
2020/12/14 14:00:41;;;;;;;27.87;17.87;;;;;;;4.39;71.80;96885.13;1755515;81;22206;-94
2020/12/14 14:04:03;;;;;;;;;;;;;;;4.36;72.00;96894.91;1736226;81;21106;-93
2020/12/14 14:07:11;;;;;;;25.85;16.65;;;;;;;4.38;72.14;96891.72;1737804;81;20288;-91
2020/12/14 14:10:19;;;;;;;;;;;;;;;;;;;;;
2020/12/14 14:13:36;;;;;;;33.55;21.27;;;;;;;4.36;72.36;96897.52;1870544;74;22343;-91
2020/12/14 14:16:36;;;;;;;25.35;17.10;;;;;;;4.34;72.38;96901.54;1831045;77;21054;-91
2020/12/14 14:19:15;;;;;;;31.40;19.95;;;;;;;4.37;72.45;96904.39;1841299;76;21355;-88
2020/12/14 14:22:04;;;;;;;;;;;;;;;;;;;;;
2020/12/14 14:25:08;;;;;;;28.38;19.45;;;;;;;4.34;72.35;96905.92;1778124;77;21224;-92
2020/12/14 14:27:41;;;;;;;35.73;21.00;;;;;;;4.23;72.52;96908.77;1758320;79;21153;-90
2020/12/14 14:30:16;;;;;;;42.67;26.85;;;;;;;4.21;72.77;96913.25;1735818;80;21152;-89
2020/12/14 14:32:47;;;;;;;29.77;18.42;;;;;;;4.20;72.83;96907.66;1733068;80;21477;-88
2020/12/14 14:35:25;;;;;;;26.77;18.27;;;;;;;4.17;73.02;96923.51;1741392;82;21308;-89
2020/12/14 14:49:25;;;;;;;25.65;16.57;;;;;;;4.03;73.41;96927.47;1760462;80;22905;-89
2020/12/14 14:51:57;;;;;;;30.60;19.57;;;;;;;3.97;73.40;96928.73;1740424;81;21138;-88
2020/12/14 14:54:29;;;;;;;35.88;21.48;;;;;;;3.92;73.47;96932.58;1738686;82;21433;-88
2020/12/14 14:56:59;;;;;;;37.15;21.27;;;;;;;3.93;73.70;96934.23;1739594;82;21141;-92
2020/12/14 14:59:27;;;;;;;37.05;24.50;;;;;;;4.00;73.82;96934.20;1711812;82;21559;-90
2020/12/14 15:02:02;;;;;;;41.48;28.00;;;;;;;4.11;73.70;96935.64;1740972;81;21614;-90
2020/12/14 15:04:34;;;;;;;41.23;28.00;;;;;;;4.12;73.42;96938.61;1740639;82;21180;-86
2020/12/14 15:07:04;;;;;;;32.00;19.80;;;;;;;4.11;73.09;96944.77;1741734;81;22288;-85
2020/12/14 15:09:34;;;;;;;36.03;21.50;;;;;;;4.07;73.17;96938.07;1748133;81;21419;-88
2020/12/14 15:12:04;;;;;;;28.40;19.02;;;;;;;4.04;73.09;96941.36;1756764;78;21121;-89
2020/12/14 15:14:33;;;;;;;25.70;17.02;;;;;;;3.99;73.15;96947.70;1772142;78;21121;-87
2020/12/14 15:17:03;;;;;;;32.42;20.50;;;;;;;4.00;73.27;96947.23;1759405;81;21092;-86
2020/12/14 15:19:32;;;;;;;32.75;20.90;;;;;;;4.06;73.34;96957.72;1756094;81;21201;-87
2020/12/14 15:22:03;;;;;;;33.55;21.95;;;;;;;4.09;73.29;96960.98;1740044;81;21179;-88
2020/12/14 15:24:32;;;;;;;33.38;20.92;;;;;;;4.13;73.12;96963.73;1739246;82;21208;-90
2020/12/14 15:27:01;;;;;;;35.85;23.02;;;;;;;4.13;73.13;96970.24;1738962;82;21104;-89
2020/12/14 15:29:31;;;;;;;36.00;23.00;;;;;;;4.18;73.00;96979.91;1738821;82;21068;-89
2020/12/14 15:32:01;;;;;;;35.10;20.80;;;;;;;4.21;72.93;96975.81;1738044;82;21352;-87
2020/12/14 15:34:35;;;;;;;30.37;20.37;;;;;;;4.23;72.70;96975.23;1736215;82;21239;-88
2020/12/14 15:37:04;;;;;;;29.25;19.35;;;;;;;4.25;72.63;96979.03;1738829;82;21136;-86
2020/12/14 15:39:35;;;;;;;30.10;19.62;;;;;;;4.24;72.58;96972.98;1738696;82;21117;-88
2020/12/14 15:42:05;;;;;;;31.33;19.42;;;;;;;4.19;72.58;96965.09;1740128;81;21220;-85
2020/12/14 15:44:34;;;;;;;30.37;19.07;;;;;;;4.14;72.79;96974.98;1738264;82;21209;-84
2020/12/14 15:47:03;;;;;;;49.75;36.13;;;;;;;4.16;72.87;96967.45;1740107;81;21156;-85
2020/12/14 15:49:43;;;;;;;70.30;52.15;;;;;;;4.13;72.83;96957.69;1695658;83;21200;-86
2020/12/14 15:52:19;;;;;;;53.23;36.77;;;;;;;4.06;73.00;96955.95;1688474;83;21228;-84
2020/12/14 15:54:49;;;;;;;46.65;34.18;;;;;;;3.96;73.11;96956.17;1708963;83;21804;-86
2020/12/14 15:57:20;;;;;;;48.05;33.92;;;;;;;3.91;73.32;96961.70;1692943;83;21385;-86
2020/12/14 15:59:52;;;;;;;41.45;28.35;;;;;;;3.90;73.40;96962.61;1709745;83;21271;-85
2020/12/14 16:02:21;;;;;;;44.88;31.17;;;;;;;3.92;73.56;96954.25;1709755;83;21214;-87
2020/12/14 16:04:52;;;;;;;59.13;34.45;;;;;;;3.96;73.52;96964.81;1709796;83;21574;-87
2020/12/14 16:07:21;;;;;;;43.65;31.00;;;;;;;3.98;73.81;96960.83;1710256;83;21224;-87
2020/12/14 16:09:50;;;;;;;39.70;27.65;;;;;;;4.13;73.76;96964.20;1710684;83;21379;-87
2020/12/14 16:12:20;;;;;;;34.43;25.02;;;;;;;4.19;73.30;96962.02;1710518;83;21093;-87
2020/12/14 16:14:50;;;;;;;35.45;23.35;;;;;;;4.08;73.15;96968.40;1710641;83;21192;-88
2020/12/14 16:17:21;;;;;;;35.98;22.45;;;;;;;4.05;73.25;96969.92;1710439;83;21569;-86
2020/12/14 16:19:50;;;;;;;34.67;22.05;;;;;;;4.07;73.42;96975.86;1710599;83;21098;-87
2020/12/14 16:22:19;;;;;;;35.65;21.80;;;;;;;4.14;73.30;96971.08;1710727;83;21353;-87
2020/12/14 16:24:48;;;;;;;33.88;22.02;;;;;;;4.19;73.15;96978.97;1710504;83;21113;-86
2020/12/14 16:27:16;;;;;;;32.50;20.75;;;;;;;4.17;72.87;96974.33;1710709;83;21222;-85
2020/12/14 16:29:51;;;;;;;30.43;18.50;;;;;;;4.10;73.08;96974.37;1710828;83;21629;-83
2020/12/14 16:32:29;;;;;;;34.15;20.72;;;;;;;4.13;73.14;96983.75;1710678;83;21165;-84
2020/12/14 16:35:05;;;;;;;36.30;22.20;;;;;;;4.16;73.23;96985.70;1710584;83;21375;-86
2020/12/14 16:37:34;;;;;;;33.78;20.92;;;;;;;4.19;73.14;96989.39;1710473;83;21170;-84
2020/12/14 16:40:05;;;;;;;31.68;20.02;;;;;;;4.17;73.10;96992.58;1710371;83;21197;-84
2020/12/14 16:42:36;;;;;;;34.43;20.88;;;;;;;4.17;73.15;96989.14;1710487;83;21145;-88
2020/12/14 16:45:06;;;;;;;38.17;24.45;;;;;;;4.17;73.15;96983.92;1710636;83;21137;-83
2020/12/14 16:47:38;;;;;;;39.58;26.57;;;;;;;4.18;73.18;96989.03;1710834;83;21391;-84
2020/12/14 16:50:07;;;;;;;37.78;24.02;;;;;;;4.20;73.15;96992.83;1742138;82;21158;-85
2020/12/14 16:52:35;;;;;;;43.05;27.70;;;;;;;4.19;73.07;96991.16;1741153;82;21208;-86
2020/12/14 16:55:04;;;;;;;45.40;28.02;;;;;;;4.16;73.28;96991.37;1741522;82;21161;-84
2020/12/14 16:57:34;;;;;;;44.50;28.07;;;;;;;4.12;73.32;96988.13;1741045;82;21201;-85
2020/12/14 17:00:05;;;;;;;47.62;27.80;;;;;;;4.12;73.56;96991.20;1741092;82;21512;-84
2020/12/14 17:02:34;;;;;;;47.93;28.80;;;;;;;4.17;73.58;96991.73;1741219;82;21250;-83
2020/12/14 17:05:06;;;;;;;47.62;29.07;;;;;;;4.21;73.39;96988.84;1742158;82;21208;-84
2020/12/14 17:07:38;;;;;;;51.42;30.80;;;;;;;4.18;73.35;96994.23;1744779;82;21170;-84
2020/12/14 17:10:07;;;;;;;49.63;29.27;;;;;;;4.18;73.36;96988.20;1742600;82;21136;-85
2020/12/14 17:12:40;;;;;;;44.98;27.13;;;;;;;4.20;73.29;96995.44;1741433;82;21378;-87
2020/12/14 17:15:11;;;;;;;42.73;26.82;;;;;;;4.13;73.03;96991.09;1741463;82;21248;-85
2020/12/14 17:17:41;;;;;;;41.48;25.12;;;;;;;4.05;73.39;96996.45;1741842;82;21106;-85
2020/12/14 17:20:12;;;;;;;40.17;26.63;;;;;;;4.06;73.51;96994.20;1739082;82;21111;-84
2020/12/14 17:22:44;;;;;;;48.05;27.95;;;;;;;4.00;73.55;96987.14;1739040;82;21139;-85
2020/12/14 17:25:12;;;;;;;48.00;28.23;;;;;;;3.91;73.98;96994.27;1738960;82;21235;-84
2020/12/14 17:30:21;;;;;;;44.77;29.92;;;;;;;3.92;74.19;96987.28;1846724;77;22769;-85
2020/12/14 17:32:55;;;;;;;42.48;27.65;;;;;;;3.87;74.25;97004.97;1823675;78;21155;-84
2020/12/14 17:35:24;;;;;;;45.10;26.77;;;;;;;3.88;74.22;97005.34;1823356;78;21198;-83
2020/12/14 17:37:54;;;;;;;;;;;;;;;3.88;74.23;97000.95;1825759;78;21154;-84
2020/12/14 17:40:23;;;;;;;51.50;28.40;;;;;;;3.85;74.16;97004.22;1823673;78;20215;-83
2020/12/14 17:42:53;;;;;;;42.70;27.02;;;;;;;3.74;74.27;97002.31;1823400;78;21194;-85
2020/12/14 17:45:22;;;;;;;41.88;26.50;;;;;;;3.71;74.74;96997.28;1824167;78;21603;-85
2020/12/14 17:47:51;;;;;;;51.75;28.32;;;;;;;3.72;75.00;97001.08;1823916;78;22257;-86
2020/12/14 17:50:20;;;;;;;47.38;27.80;;;;;;;3.76;74.87;96999.13;1823628;78;21500;-83
2020/12/14 17:52:49;;;;;;;54.08;28.23;;;;;;;3.75;74.85;96997.00;1823623;78;21127;-85
2020/12/14 17:55:17;;;;;;;45.33;27.48;;;;;;;3.79;74.81;97002.83;1823633;78;21058;-84
2020/12/14 17:57:46;;;;;;;57.75;34.70;;;;;;;3.84;74.75;97005.98;1823750;78;21563;-84
2020/12/14 18:00:17;;;;;;;46.60;29.35;;;;;;;3.87;74.66;97006.27;1823648;78;21364;-85
2020/12/14 18:02:46;;;;;;;39.75;24.75;;;;;;;3.84;74.50;97006.45;1823642;78;21606;-84
2020/12/14 18:05:16;;;;;;;34.18;19.65;;;;;;;3.82;74.70;97013.07;1824188;78;21107;-84
2020/12/14 18:07:45;;;;;;;40.25;23.40;;;;;;;3.85;74.72;97019.84;1824254;78;21138;-83
2020/12/14 18:10:15;;;;;;;34.05;19.92;;;;;;;3.86;74.67;97018.94;1823963;78;21126;-83
2020/12/14 18:12:47;;;;;;;33.48;20.32;;;;;;;3.82;74.66;97019.58;1824207;78;21408;-85
2020/12/14 18:15:17;;;;;;;40.38;23.70;;;;;;;3.80;74.63;97025.37;1824304;78;21091;-86
2020/12/14 18:17:46;;;;;;;37.38;21.77;;;;;;;3.71;74.78;97023.33;1823489;78;21134;-86
2020/12/14 18:20:22;;;;;;;37.60;20.88;;;;;;;3.64;75.08;97020.27;1823553;78;21123;-84
2020/12/14 18:22:51;;;;;;;42.23;22.20;;;;;;;3.62;75.36;97020.84;1823547;78;21059;-84
2020/12/14 18:25:20;;;;;;;38.73;21.55;;;;;;;3.70;75.47;97019.89;1823406;78;21260;-85
2020/12/14 18:27:49;;;;;;;41.05;23.00;;;;;;;3.75;75.31;97021.74;1823518;78;21066;-86
2020/12/14 18:30:18;;;;;;;37.88;21.87;;;;;;;3.75;75.37;97020.91;1823349;78;21130;-82
2020/12/14 21:25:00;;;;;;;66.47;34.10;;;;;;;3.24;77.36;97067.42;1769513;81;21082;-83
2020/12/14 21:27:31;;;;;;;59.98;31.85;;;;;;;3.24;77.37;97067.89;1739037;82;21552;-83
2020/12/14 21:30:00;;;;;;;69.65;36.58;;;;;;;3.22;77.35;97070.59;1769405;81;21462;-83
2020/12/14 21:32:29;;;;;;;76.67;40.70;;;;;;;3.23;77.53;97074.03;1739008;82;21092;-82
2020/12/14 21:34:58;;;;;;;118.42;52.73;;;;;;;3.27;77.52;97076.37;1769378;81;21058;-83
2020/12/14 21:37:29;;;;;;;89.22;46.30;;;;;;;3.32;77.56;97078.23;1738893;82;21222;-83
2020/12/14 21:39:58;;;;;;;69.87;38.48;;;;;;;3.37;77.41;97079.23;1748810;80;21520;-84
2020/12/14 21:42:28;;;;;;;107.22;51.28;;;;;;;3.37;77.26;97083.14;1738828;82;21374;-83
2020/12/14 21:44:58;;;;;;;74.90;39.13;;;;;;;3.30;76.98;97085.74;1769379;81;21063;-83
2020/12/14 21:47:27;;;;;;;325.10;136.50;;;;;;;3.16;77.01;97093.08;1738963;82;21516;-83
2020/12/14 21:49:56;;;;;;;104.10;51.98;;;;;;;3.09;77.47;97096.52;1779641;80;21097;-84
2020/12/14 21:52:25;;;;;;;47.98;30.37;;;;;;;3.08;77.38;97092.67;1816480;79;21105;-84
2020/12/14 21:54:53;;;;;;;76.57;40.83;;;;;;;3.07;77.54;97096.21;1749758;82;21373;-83
2020/12/14 21:57:22;;;;;;;48.45;27.22;;;;;;;3.13;77.51;97098.45;1780406;80;21129;-83
2020/12/14 21:59:51;;;;;;;43.20;25.32;;;;;;;3.17;77.27;97099.48;1816307;79;21634;-84
2020/12/14 22:02:20;;;;;;;40.92;24.23;;;;;;;3.15;77.09;97104.42;1816442;79;21066;-82
2020/12/14 22:04:49;;;;;;;40.85;24.57;;;;;;;3.06;76.93;97101.05;1749463;82;21154;-83
2020/12/14 22:07:19;;;;;;;45.10;26.40;;;;;;;2.91;77.02;97099.73;1780414;80;21409;-84
2020/12/14 22:09:47;;;;;;;42.95;25.80;;;;;;;2.81;77.35;97090.78;1816588;79;21072;-83
2020/12/14 22:12:16;;;;;;;47.70;27.10;;;;;;;2.78;77.55;97092.24;1816639;78;21057;-82
2020/12/14 22:14:45;;;;;;;59.90;34.48;;;;;;;2.77;77.70;97089.73;1816765;78;21593;-83
2020/12/14 22:17:17;;;;;;;52.53;32.50;;;;;;;2.74;77.60;97087.33;1816721;79;21165;-81
2020/12/14 22:19:46;;;;;;;58.33;30.45;;;;;;;2.74;78.04;97089.93;1816871;79;21999;-82
2020/12/14 22:22:15;;;;;;;54.50;31.95;;;;;;;2.80;78.14;97094.31;1816572;79;21137;-83
2020/12/14 22:24:44;;;;;;;53.30;33.50;;;;;;;2.84;77.94;97087.98;1750032;82;21119;-83
2020/12/14 22:27:13;;;;;;;62.13;35.43;;;;;;;2.80;77.79;97095.61;1780550;80;21240;-83
2020/12/14 22:29:41;;;;;;;63.78;36.28;;;;;;;2.75;77.96;97095.03;1816631;79;21188;-82
2020/12/14 22:32:11;;;;;;;56.83;34.10;;;;;;;2.67;77.94;97083.78;1819697;78;21373;-82
2020/12/14 22:34:44;;;;;;;65.78;40.50;;;;;;;2.63;78.33;97091.84;1820508;78;21105;-82
2020/12/14 22:37:13;;;;;;;63.02;36.42;;;;;;;2.70;78.62;97096.22;1816883;78;21164;-83
2020/12/14 22:39:43;;;;;;;62.58;33.88;;;;;;;2.77;78.51;97087.97;1748853;81;21128;-83
2020/12/14 22:42:12;;;;;;;62.25;36.95;;;;;;;2.77;78.72;97085.38;1780713;80;21094;-82
2020/12/14 22:44:41;;;;;;;68.07;37.80;;;;;;;2.80;78.59;97086.51;1816738;79;21455;-82
2020/12/14 22:47:10;;;;;;;58.00;35.08;;;;;;;2.77;78.78;97084.53;1816528;79;21164;-81
2020/12/14 22:49:40;;;;;;;53.85;32.05;;;;;;;2.82;78.96;97082.05;1755343;81;21079;-82
2020/12/14 22:52:09;;;;;;;62.25;35.90;;;;;;;2.90;78.65;97076.39;1789158;80;21069;-81
2020/12/14 22:54:38;;;;;;;46.25;27.20;;;;;;;2.90;78.39;97076.39;1758017;81;21061;-82
2020/12/14 22:57:08;;;;;;;51.05;31.52;;;;;;;2.92;78.34;97069.35;1756451;81;21396;-83
2020/12/14 22:59:36;;;;;;;51.98;29.50;;;;;;;3.00;78.37;97066.29;1758234;81;21509;-81
2020/12/14 23:02:05;;;;;;;51.15;26.52;;;;;;;3.07;78.37;97064.99;1789360;80;21169;-82
2020/12/14 23:04:34;;;;;;;47.20;25.95;;;;;;;3.11;78.18;97054.32;1757984;81;21154;-83
2020/12/14 23:07:03;;;;;;;54.90;28.35;;;;;;;3.16;78.01;97066.59;1789477;80;21129;-83
2020/12/14 23:09:32;;;;;;;53.80;29.10;;;;;;;3.15;77.70;97064.92;1758210;81;21382;-81
2020/12/14 23:12:02;;;;;;;52.00;29.45;;;;;;;3.12;77.83;97067.70;1789097;80;21149;-83
2020/12/14 23:14:31;;;;;;;52.40;30.20;;;;;;;3.12;77.84;97062.49;1758035;81;21157;-83
2020/12/14 23:16:59;;;;;;;53.42;28.05;;;;;;;3.11;77.85;97067.33;1789295;80;21093;-82
2020/12/14 23:19:28;;;;;;;51.68;28.45;;;;;;;3.10;77.80;97070.03;1758054;81;21250;-82
2020/12/14 23:21:58;;;;;;;50.78;29.75;;;;;;;3.03;77.81;97066.95;1789484;80;21139;-83
2020/12/14 23:24:27;;;;;;;46.80;27.52;;;;;;;2.99;78.08;97067.22;1758082;81;21229;-83
2020/12/14 23:26:59;;;;;;;50.35;27.27;;;;;;;3.03;78.14;97066.95;1789369;80;21081;-81
2020/12/14 23:29:28;;;;;;;45.67;26.20;;;;;;;3.01;77.98;97069.27;1758264;81;21518;-82
2020/12/14 23:31:57;;;;;;;42.00;24.02;;;;;;;2.95;78.03;97068.69;1789319;80;21328;-82
2020/12/14 23:34:26;;;;;;;49.20;26.30;;;;;;;2.92;78.13;97066.28;1757982;81;21425;-82
2020/12/14 23:36:56;;;;;;;44.90;24.43;;;;;;;2.90;78.11;97062.91;1789344;80;21053;-82
2020/12/14 23:39:25;;;;;;;50.50;25.62;;;;;;;2.93;78.30;97054.95;1758173;81;21146;-81
2020/12/14 23:41:53;;;;;;;45.50;25.10;;;;;;;3.01;78.40;97053.19;1789371;80;21621;-81
2020/12/14 23:44:22;;;;;;;52.85;26.35;;;;;;;3.08;78.31;97045.84;1758123;81;21095;-81
2020/12/14 23:46:51;;;;;;;50.17;26.95;;;;;;;3.13;78.05;97048.55;1789321;80;22283;-83
2020/12/14 23:49:19;;;;;;;42.17;24.25;;;;;;;3.08;77.81;97044.55;1757855;81;21232;-82
2020/12/14 23:51:48;;;;;;;39.45;22.85;;;;;;;3.04;77.93;97043.91;1789405;80;21077;-81
2020/12/14 23:54:18;;;;;;;40.83;22.98;;;;;;;3.03;77.93;97043.55;1758204;81;21146;-82
2020/12/14 23:56:46;;;;;;;39.92;21.90;;;;;;;3.06;77.83;97042.05;1757990;81;21076;-82
2020/12/14 23:59:15;;;;;;;43.25;23.55;;;;;;;3.08;77.99;97038.88;1734167;80;21593;-82
